Time;durP1;ratioP1;P1;durP2;ratioP2;P2;SDS_P1;SDS_P2;PMS_P1;PMS_P2;Temp;Humidity;BMP_temperature;BMP_pressure;BME280_temperature;BME280_humidity;BME280_pressure;Samples;Min_cycle;Max_cycle;Signal;HPM_P1;HPM_P2
2023/06/10 00:00:44;;;;;;;5.25;3.60;;;;;;;18.36;48.84;99693.44;10297652;28;20058;-64
2023/06/10 00:05:46;;;;;;;5.22;3.40;;;;;;;17.75;49.42;99696.50;10299149;28;20426;-65
2023/06/10 00:10:48;;;;;;;6.00;2.97;;;;;;;17.73;50.10;99690.53;10285749;28;20763;-64
2023/06/10 00:15:50;;;;;;;7.03;3.70;;;;;;;17.54;50.05;99685.31;10300327;28;20042;-64
2023/06/10 00:20:54;;;;;;;5.63;3.50;;;;;;;17.38;50.40;99700.06;10300722;28;20046;-64
2023/06/10 00:25:59;;;;;;;6.32;3.97;;;;;;;17.44;51.08;99692.41;10284755;28;20047;-64
2023/06/10 00:31:01;;;;;;;5.70;3.65;;;;;;;17.53;50.77;99688.06;10301620;28;20046;-65
2023/06/10 00:36:03;;;;;;;7.55;3.35;;;;;;;17.54;50.96;99693.22;10285678;28;20050;-64
2023/06/10 00:41:05;;;;;;;5.80;3.70;;;;;;;17.41;51.56;99692.69;10302927;28;20046;-63
2023/06/10 00:46:07;;;;;;;4.80;3.30;;;;;;;17.25;51.74;99689.75;10301887;28;20791;-64
2023/06/10 00:51:10;;;;;;;6.13;3.78;;;;;;;16.78;52.37;99693.16;10299805;28;20137;-64
2023/06/10 00:56:13;;;;;;;4.70;3.40;;;;;;;16.84;52.97;99695.28;10300882;28;20047;-64
2023/06/10 01:01:15;;;;;;;7.20;3.78;;;;;;;16.86;53.02;99703.88;10302601;28;20058;-64
2023/06/10 01:06:19;;;;;;;6.90;3.45;;;;;;;16.73;53.80;99701.50;10301930;28;20065;-64
2023/06/10 01:11:27;;;;;;;5.25;3.50;;;;;;;16.32;54.08;99703.44;10300812;28;20049;-64
2023/06/10 01:16:29;;;;;;;5.55;3.55;;;;;;;16.30;54.00;99703.59;10315764;28;20418;-63
2023/06/10 01:21:32;;;;;;;6.07;3.72;;;;;;;16.42;54.24;99701.66;10301142;28;20046;-64
2023/06/10 01:26:37;;;;;;;5.35;3.55;;;;;;;16.15;54.14;99704.91;10280884;28;20045;-64
2023/06/10 01:31:48;;;;;;;6.20;3.97;;;;;;;15.63;56.22;99713.78;10283460;28;20073;-63
2023/06/10 01:36:50;;;;;;;6.18;3.70;;;;;;;15.76;55.76;99706.50;10300738;28;20091;-64
2023/06/10 01:41:53;;;;;;;5.90;3.70;;;;;;;16.00;55.38;99711.47;10299820;28;20771;-64
2023/06/10 01:46:55;;;;;;;6.43;3.85;;;;;;;16.14;54.85;99709.34;10350941;28;20047;-63
2023/06/10 01:51:57;;;;;;;5.55;3.30;;;;;;;16.16;55.05;99707.41;10280675;28;20498;-63
2023/06/10 01:56:59;;;;;;;5.65;3.65;;;;;;;16.15;55.09;99716.28;10299053;28;20052;-63
2023/06/10 02:02:01;;;;;;;6.55;3.80;;;;;;;16.18;55.26;99715.22;10302158;28;20066;-64
2023/06/10 02:07:04;;;;;;;8.02;4.00;;;;;;;16.21;55.05;99709.66;10306719;28;20046;-66
2023/06/10 02:12:06;;;;;;;5.60;3.83;;;;;;;16.03;55.06;99714.72;10307331;28;20073;-65
2023/06/10 02:17:12;;;;;;;6.32;3.90;;;;;;;16.00;55.42;99720.25;10286620;28;20050;-65
2023/06/10 02:22:16;;;;;;;6.35;3.75;;;;;;;15.90;55.50;99718.50;10320232;28;20525;-65
2023/06/10 02:27:18;;;;;;;7.38;4.20;;;;;;;15.76;55.58;99722.31;10303349;28;20042;-65
2023/06/10 02:32:20;;;;;;;6.05;4.07;;;;;;;15.65;55.76;99724.19;10371979;28;20050;-65
2023/06/10 02:37:22;;;;;;;6.28;3.88;;;;;;;15.39;56.50;99727.16;10355632;28;20045;-65
2023/06/10 02:42:24;;;;;;;6.03;3.90;;;;;;;15.33;56.32;99727.66;10304050;28;20418;-64
2023/06/10 02:47:26;;;;;;;5.95;3.72;;;;;;;15.24;56.70;99728.44;10305301;28;20053;-64
2023/06/10 02:52:31;;;;;;;4.90;3.50;;;;;;;15.20;57.04;99731.44;10307086;28;20076;-64
2023/06/10 02:57:33;;;;;;;8.50;3.88;;;;;;;15.12;57.32;99729.41;10353589;28;20096;-64
2023/06/10 03:02:38;;;;;;;6.07;3.85;;;;;;;15.05;57.48;99728.25;10286070;28;20367;-65
2023/06/10 03:07:42;;;;;;;5.47;3.60;;;;;;;15.05;57.53;99728.25;10280597;28;20074;-65
2023/06/10 03:12:44;;;;;;;8.55;3.65;;;;;;;14.98;57.46;99729.69;10347359;28;20100;-64
2023/06/10 03:17:47;;;;;;;6.03;4.10;;;;;;;14.94;57.75;99730.09;10279116;28;20054;-65
2023/06/10 03:22:49;;;;;;;5.63;3.95;;;;;;;15.07;57.16;99736.03;10279347;28;20123;-64
2023/06/10 03:27:51;;;;;;;5.60;3.72;;;;;;;14.86;57.71;99737.78;10299006;28;20042;-64
2023/06/10 03:32:54;;;;;;;6.68;4.03;;;;;;;14.71;58.12;99739.00;10264848;28;20127;-65
2023/06/10 03:37:59;;;;;;;6.13;3.85;;;;;;;14.75;57.78;99743.91;10346008;28;20062;-64
2023/06/10 03:43:01;;;;;;;6.72;4.00;;;;;;;14.75;58.05;99746.53;10326862;28;20046;-64
2023/06/10 03:48:06;;;;;;;6.43;3.83;;;;;;;14.79;57.78;99741.84;10287908;28;20042;-64
2023/06/10 03:53:17;;;;;;;6.88;3.83;;;;;;;14.97;57.90;99743.00;10286350;28;20061;-64
2023/06/10 03:58:19;;;;;;;5.50;3.80;;;;;;;15.08;57.67;99741.16;10285542;28;20886;-65
2023/06/10 04:03:22;;;;;;;6.50;3.67;;;;;;;15.25;57.42;99745.06;10304838;28;20062;-64
2023/06/10 04:08:26;;;;;;;6.70;3.85;;;;;;;15.53;57.23;99749.75;10325356;28;20052;-64
2023/06/10 04:13:28;;;;;;;5.28;3.58;;;;;;;17.31;54.58;99743.84;10353168;28;20410;-64
2023/06/10 04:18:32;;;;;;;5.90;4.00;;;;;;;19.02;50.96;99742.56;10320580;28;20054;-64
2023/06/10 04:23:39;;;;;;;5.13;3.63;;;;;;;20.61;48.50;99743.16;10286207;28;20131;-64
2023/06/10 04:28:44;;;;;;;6.20;3.40;;;;;;;21.60;46.71;99742.22;10299797;28;20046;-64
2023/06/10 04:33:47;;;;;;;5.07;3.22;;;;;;;22.87;44.57;99737.78;10286164;28;20047;-64
2023/06/10 04:38:51;;;;;;;4.68;3.38;;;;;;;23.98;42.51;99743.31;10286330;28;20958;-64
2023/06/10 04:43:54;;;;;;;5.03;3.45;;;;;;;25.27;40.58;99739.09;10283875;28;20050;-65
2023/06/10 04:48:56;;;;;;;5.03;3.00;;;;;;;26.22;38.71;99739.56;10298683;28;20183;-65
2023/06/10 04:54:03;;;;;;;6.10;3.10;;;;;;;26.91;37.25;99737.66;10276492;28;20047;-65
2023/06/10 04:59:05;;;;;;;5.03;3.25;;;;;;;26.92;36.94;99734.75;10297601;28;20078;-66
2023/06/10 05:04:07;;;;;;;4.47;3.08;;;;;;;27.54;35.93;99742.59;10297344;28;20070;-66
2023/06/10 05:09:10;;;;;;;4.00;3.05;;;;;;;27.96;34.87;99744.06;10294777;28;20240;-64
2023/06/10 05:14:12;;;;;;;4.40;3.08;;;;;;;28.19;34.42;99747.13;10298668;28;20054;-65
2023/06/10 05:19:16;;;;;;;4.18;2.83;;;;;;;28.43;33.74;99745.66;10296035;28;20439;-65
2023/06/10 05:24:18;;;;;;;4.25;3.10;;;;;;;28.92;33.29;99740.53;10310441;28;20049;-65
2023/06/10 05:29:20;;;;;;;5.68;3.15;;;;;;;28.10;33.44;99746.53;10296231;28;20568;-63
2023/06/10 05:34:22;;;;;;;5.40;3.25;;;;;;;25.76;35.97;99731.97;10290114;28;20440;-64
2023/06/10 05:39:24;;;;;;;5.47;3.42;;;;;;;23.94;38.66;99747.34;10277874;28;20383;-64
2023/06/10 05:44:29;;;;;;;4.88;2.95;;;;;;;22.85;40.50;99756.63;10344596;22;20066;-86
2023/06/10 05:49:31;;;;;;;5.22;2.88;;;;;;;22.40;41.51;99756.44;10442576;28;20049;-87
2023/06/10 05:54:38;;;;;;;5.60;3.33;;;;;;;22.08;42.62;99754.69;10439719;28;20052;-86
2023/06/10 05:59:42;;;;;;;4.97;3.20;;;;;;;21.99;42.57;99754.81;10452786;28;20041;-85
2023/06/10 06:04:44;;;;;;;5.40;3.00;;;;;;;22.02;42.58;99754.50;10434690;28;20855;-86
2023/06/10 06:09:47;;;;;;;4.68;3.03;;;;;;;22.23;42.46;99746.84;10450151;28;20032;-85
2023/06/10 06:14:49;;;;;;;4.30;3.10;;;;;;;22.53;42.70;99744.25;10433426;28;20703;-86
2023/06/10 06:19:51;;;;;;;4.50;3.00;;;;;;;22.46;42.43;99739.75;10432984;28;20049;-85
2023/06/10 06:24:54;;;;;;;4.80;2.65;;;;;;;22.59;41.48;99746.22;10453255;28;20057;-86
2023/06/10 06:29:58;;;;;;;4.38;2.78;;;;;;;22.78;40.75;99744.97;10439128;28;20048;-86
2023/06/10 06:35:01;;;;;;;4.05;2.85;;;;;;;22.70;40.26;99752.97;10449555;28;20059;-83
2023/06/10 06:40:05;;;;;;;4.50;2.70;;;;;;;23.07;39.58;99758.50;10448800;28;20044;-85
2023/06/10 06:45:08;;;;;;;5.07;2.80;;;;;;;22.88;39.00;99763.47;10416982;28;20056;-85
2023/06/10 06:50:12;;;;;;;4.18;2.50;;;;;;;23.57;38.69;99767.88;10450090;28;20124;-85
2023/06/10 06:55:22;;;;;;;3.72;2.50;;;;;;;24.54;37.75;99771.31;10455372;28;20052;-85
2023/06/10 07:00:24;;;;;;;5.05;2.67;;;;;;;26.13;36.97;99759.47;10406710;28;20056;-86
2023/06/10 07:05:27;;;;;;;4.03;2.58;;;;;;;27.91;35.07;99757.31;10435125;28;20669;-86
2023/06/10 07:10:30;;;;;;;4.60;2.85;;;;;;;28.45;33.11;99751.66;10432233;28;20049;-85
2023/06/10 07:15:33;;;;;;;4.25;2.72;;;;;;;29.16;32.03;99747.03;10435146;28;20417;-85
2023/06/10 07:20:36;;;;;;;4.72;2.50;;;;;;;30.16;30.19;99750.50;10437445;28;20460;-86
2023/06/10 07:25:38;;;;;;;4.78;2.50;;;;;;;30.09;29.83;99757.00;10443926;28;20052;-86
2023/06/10 07:30:41;;;;;;;3.78;2.58;;;;;;;30.68;29.72;99744.53;10426204;28;20049;-86
2023/06/10 07:35:44;;;;;;;4.00;2.30;;;;;;;31.68;28.60;99751.09;10437723;28;20053;-86
2023/06/10 07:40:46;;;;;;;6.13;2.40;;;;;;;31.60;28.13;99751.44;10435337;28;20132;-86
2023/06/10 07:45:50;;;;;;;3.58;2.15;;;;;;;31.52;27.32;99749.06;10461349;28;20053;-87
2023/06/10 07:50:54;;;;;;;3.60;2.40;;;;;;;30.59;28.04;99745.06;10440400;28;20119;-87
2023/06/10 07:56:03;;;;;;;4.30;2.30;;;;;;;30.94;27.10;99743.41;10456453;28;20044;-87
2023/06/10 08:01:07;;;;;;;6.45;2.47;;;;;;;30.70;27.93;99747.03;10456428;28;20045;-87
2023/06/10 08:06:11;;;;;;;3.85;2.40;;;;;;;30.80;27.03;99738.38;10454311;28;20059;-87
2023/06/10 08:11:16;;;;;;;3.90;2.50;;;;;;;30.86;27.38;99729.38;10452373;28;20040;-87
2023/06/10 08:16:18;;;;;;;4.28;2.40;;;;;;;31.74;26.88;99739.34;10427191;28;20044;-88
2023/06/10 08:21:22;;;;;;;3.55;2.40;;;;;;;31.38;26.84;99742.16;10441204;28;20036;-87
2023/06/10 08:26:25;;;;;;;3.92;2.67;;;;;;;31.37;26.92;99740.53;10439205;28;20131;-87
2023/06/10 08:31:28;;;;;;;3.78;2.60;;;;;;;30.91;26.90;99740.31;10428544;28;20051;-87
2023/06/10 08:36:36;;;;;;;3.75;2.55;;;;;;;31.40;26.45;99735.50;10460447;28;20045;-87
2023/06/10 08:41:43;;;;;;;4.28;2.55;;;;;;;31.81;26.06;99729.25;10458364;28;20044;-87
2023/06/10 08:46:48;;;;;;;4.75;2.80;;;;;;;31.64;26.35;99733.69;10455523;28;20056;-87
2023/06/10 08:51:51;;;;;;;3.35;2.35;;;;;;;31.78;26.65;99731.59;10441423;28;20041;-87
2023/06/10 08:56:57;;;;;;;5.68;2.67;;;;;;;31.16;26.86;99730.25;10458552;28;20061;-86
2023/06/10 09:02:02;;;;;;;3.30;2.10;;;;;;;31.50;26.46;99721.44;10435635;28;20064;-86
2023/06/10 09:07:06;;;;;;;3.58;2.40;;;;;;;31.15;25.88;99726.69;10453800;28;20048;-86
2023/06/10 09:12:10;;;;;;;3.80;2.22;;;;;;;31.42;26.85;99717.16;10458327;28;20584;-86
2023/06/10 09:17:13;;;;;;;5.82;2.50;;;;;;;31.56;26.54;99719.69;10436939;28;20105;-86
2023/06/10 09:27:53;;;;;;;4.22;2.40;;;;;;;30.77;26.89;99714.53;10505478;27;20141;-61
2023/06/10 09:32:56;;;;;;;3.80;2.67;;;;;;;30.82;26.79;99711.97;10530756;28;20208;-62
2023/06/10 09:38:00;;;;;;;6.60;2.67;;;;;;;31.10;26.68;99702.28;10510229;28;20551;-62
2023/06/10 09:43:02;;;;;;;3.83;2.20;;;;;;;31.51;26.54;99709.56;10545563;28;20487;-62
2023/06/10 09:48:04;;;;;;;3.45;2.20;;;;;;;31.38;25.56;99712.44;10515748;28;20102;-62
2023/06/10 09:53:06;;;;;;;3.75;2.42;;;;;;;31.62;25.51;99708.75;10510684;28;20048;-62
2023/06/10 09:58:08;;;;;;;3.63;2.47;;;;;;;31.62;25.11;99699.84;10512809;28;20484;-62
2023/06/10 10:03:21;;;;;;;3.42;2.13;;;;;;;31.18;24.29;99703.81;10503086;28;20040;-62
2023/06/10 10:08:23;;;;;;;5.75;2.05;;;;;;;31.55;25.63;99696.41;10500327;28;20040;-62
2023/06/10 10:13:26;;;;;;;3.15;2.10;;;;;;;31.39;24.79;99687.06;10501150;28;20113;-62
2023/06/10 10:18:31;;;;;;;2.90;1.90;;;;;;;31.03;25.50;99685.31;10506943;28;20085;-62
2023/06/10 10:23:45;;;;;;;2.95;2.00;;;;;;;31.35;24.59;99691.31;10506281;28;20064;-62
2023/06/10 10:28:57;;;;;;;3.40;2.03;;;;;;;30.94;23.87;99683.16;10505000;28;20411;-62
2023/06/10 10:34:02;;;;;;;3.67;2.20;;;;;;;30.51;25.56;99688.69;10522662;28;20779;-62
2023/06/10 10:39:04;;;;;;;3.25;2.13;;;;;;;30.11;25.76;99698.25;10479540;28;20059;-62
2023/06/10 10:44:11;;;;;;;3.53;2.15;;;;;;;29.71;26.37;99689.69;10478140;28;20141;-62
2023/06/10 10:49:15;;;;;;;3.53;2.25;;;;;;;29.13;25.85;99683.69;10497773;28;20059;-62
2023/06/10 10:54:17;;;;;;;3.78;2.17;;;;;;;29.23;26.19;99678.66;10475055;28;21130;-62
2023/06/10 10:59:19;;;;;;;3.00;2.00;;;;;;;29.51;26.06;99671.00;10469705;28;20040;-62
2023/06/10 11:04:21;;;;;;;3.33;2.13;;;;;;;29.71;26.69;99671.63;10498480;28;20465;-61
2023/06/10 11:09:31;;;;;;;3.40;2.10;;;;;;;29.54;25.91;99673.22;10476356;28;20066;-61
2023/06/10 11:14:34;;;;;;;2.80;2.00;;;;;;;29.38;25.40;99656.78;10479361;28;20454;-62
2023/06/10 11:19:38;;;;;;;3.90;2.28;;;;;;;29.21;25.90;99663.72;10473475;28;20048;-61
2023/06/10 11:24:40;;;;;;;3.33;2.28;;;;;;;29.08;26.03;99673.56;10482698;28;20064;-61
2023/06/10 11:30:02;;;;;;;3.17;2.00;;;;;;;29.27;25.74;99668.25;10462191;28;20055;-61
2023/06/10 11:35:05;;;;;;;4.65;2.45;;;;;;;29.04;26.24;99652.66;10469249;28;20722;-61
2023/06/10 11:40:08;;;;;;;3.13;1.95;;;;;;;29.09;25.65;99653.66;10465326;28;20847;-62
2023/06/10 11:45:16;;;;;;;3.08;2.05;;;;;;;29.31;26.47;99656.81;10474744;28;20084;-61
2023/06/10 11:50:31;;;;;;;3.03;1.92;;;;;;;29.73;26.57;99647.16;10468884;28;20052;-61
2023/06/10 11:55:50;;;;;;;4.35;2.10;;;;;;;29.44;25.90;99643.25;10471234;28;20089;-61
2023/06/10 12:00:56;;;;;;;3.78;2.20;;;;;;;29.52;25.63;99631.41;10473218;28;20048;-62
2023/06/10 12:06:03;;;;;;;3.65;2.30;;;;;;;29.59;26.24;99613.28;10478506;28;20040;-61
2023/06/10 12:11:06;;;;;;;3.47;2.40;;;;;;;30.03;26.08;99614.94;10469390;28;20049;-62
2023/06/10 12:16:11;;;;;;;5.07;2.20;;;;;;;30.13;25.72;99620.63;10469810;28;20048;-62
2023/06/10 12:21:23;;;;;;;3.17;2.10;;;;;;;29.94;24.91;99617.09;10468189;28;20127;-61
2023/06/10 12:26:40;;;;;;;5.07;2.28;;;;;;;29.67;25.16;99605.75;10466109;28;20051;-61
2023/06/10 12:32:12;;;;;;;4.00;2.03;;;;;;;30.01;23.81;99608.94;10469280;28;20118;-61
2023/06/10 12:37:15;;;;;;;3.65;1.95;;;;;;;29.36;22.74;99607.69;10451243;28;20054;-62
2023/06/10 12:42:17;;;;;;;4.53;2.03;;;;;;;29.67;24.03;99611.13;10469546;28;20055;-61
2023/06/10 12:47:19;;;;;;;3.28;1.80;;;;;;;29.69;22.75;99621.69;10464535;28;20055;-62
2023/06/10 12:52:21;;;;;;;3.47;1.80;;;;;;;29.74;22.57;99594.91;10446411;28;20055;-62
2023/06/10 12:57:24;;;;;;;3.08;1.83;;;;;;;30.03;22.62;99599.56;10460455;28;20105;-62
2023/06/10 13:02:26;;;;;;;3.13;1.73;;;;;;;29.95;22.73;99596.38;10467956;28;20048;-62
2023/06/10 13:07:28;;;;;;;3.72;2.17;;;;;;;29.88;23.09;99593.72;10466844;28;20052;-62
2023/06/10 13:12:30;;;;;;;3.70;2.00;;;;;;;29.62;23.16;99596.69;10466598;28;20713;-62
2023/06/10 13:17:50;;;;;;;2.88;1.80;;;;;;;29.34;23.54;99604.34;10463581;28;20040;-61
2023/06/10 13:22:52;;;;;;;3.03;2.00;;;;;;;29.41;22.73;99581.75;10462825;28;20048;-62
2023/06/10 13:27:55;;;;;;;3.28;1.80;;;;;;;29.42;23.09;99590.66;10464506;28;20747;-62
2023/06/10 13:32:57;;;;;;;4.47;1.70;;;;;;;29.59;22.99;99589.03;10465797;28;20044;-61
2023/06/10 13:37:59;;;;;;;3.60;2.03;;;;;;;29.85;23.26;99577.97;10469263;28;20056;-62
2023/06/10 13:43:01;;;;;;;3.45;1.85;;;;;;;29.98;23.16;99579.72;10454943;28;20053;-62
2023/06/10 13:48:05;;;;;;;2.60;1.77;;;;;;;29.89;22.67;99577.28;10466515;28;20186;-62
2023/06/10 13:53:08;;;;;;;5.35;2.03;;;;;;;30.06;22.83;99582.13;10464766;28;20052;-62
2023/06/10 13:58:09;;;;;;;3.13;1.95;;;;;;;30.22;22.71;99574.25;10468782;28;20075;-61
2023/06/10 14:03:11;;;;;;;3.58;1.92;;;;;;;30.08;22.62;99564.66;10472960;28;20053;-61
2023/06/10 14:08:14;;;;;;;3.53;1.75;;;;;;;29.80;23.36;99572.44;10465960;28;20131;-61
2023/06/10 14:13:16;;;;;;;3.08;1.80;;;;;;;29.58;23.57;99569.34;10472379;28;20501;-62
2023/06/10 14:18:18;;;;;;;3.50;1.98;;;;;;;29.39;23.75;99564.16;10476330;28;20464;-61
2023/06/10 14:23:20;;;;;;;2.97;1.92;;;;;;;29.77;23.55;99554.00;10473372;28;20126;-61
2023/06/10 14:28:23;;;;;;;3.25;1.95;;;;;;;30.03;23.25;99550.22;10473222;28;20040;-61
2023/06/10 14:33:25;;;;;;;2.97;1.70;;;;;;;29.87;23.78;99546.22;10479947;28;20040;-61
2023/06/10 14:38:27;;;;;;;3.83;2.20;;;;;;;29.70;23.68;99547.88;10471793;28;20793;-61
2023/06/10 14:43:29;;;;;;;3.22;2.00;;;;;;;29.48;23.45;99552.06;10478725;28;20052;-61
2023/06/10 14:48:31;;;;;;;2.67;1.77;;;;;;;29.74;24.11;99546.38;10475432;28;20393;-61
2023/06/10 14:53:33;;;;;;;3.75;2.00;;;;;;;29.96;23.82;99534.13;10472148;28;20040;-61
2023/06/10 14:58:35;;;;;;;3.72;1.90;;;;;;;29.67;24.32;99545.63;10474406;28;20098;-63
2023/06/10 15:51:00;;;;;;;3.50;1.85;;;;;;;27.34;27.53;99519.63;10659942;27;20130;-63
2023/06/10 15:56:03;;;;;;;2.72;1.98;;;;;;;28.29;26.88;99516.25;10593661;27;20938;-63
2023/06/10 16:01:06;;;;;;;3.45;2.00;;;;;;;28.88;26.22;99516.72;10595909;27;20050;-63
2023/06/10 16:06:08;;;;;;;3.15;2.00;;;;;;;28.96;25.13;99513.75;10583006;27;20077;-63
2023/06/10 16:11:10;;;;;;;4.05;2.05;;;;;;;28.89;25.66;99499.50;10585522;27;20086;-63
2023/06/10 16:16:11;;;;;;;3.67;2.13;;;;;;;28.85;25.62;99508.22;10585577;27;20182;-62
2023/06/10 16:21:13;;;;;;;4.55;2.10;;;;;;;29.02;25.37;99510.16;10581892;27;20054;-62
2023/06/10 16:26:15;;;;;;;3.08;1.98;;;;;;;28.93;25.69;99506.09;10618131;27;20062;-62
2023/06/10 16:31:17;;;;;;;3.30;2.10;;;;;;;28.86;25.63;99504.50;10590036;27;20136;-62
2023/06/10 16:36:19;;;;;;;3.63;1.90;;;;;;;28.86;25.53;99504.50;10607979;27;20406;-62
2023/06/10 16:41:21;;;;;;;4.05;2.22;;;;;;;28.85;25.47;99500.16;10597087;27;20051;-62
2023/06/10 16:46:23;;;;;;;3.25;1.77;;;;;;;28.77;25.52;99512.00;10592531;27;20092;-62
2023/06/10 16:51:25;;;;;;;3.42;1.90;;;;;;;28.97;25.26;99517.28;10585659;27;20046;-62
2023/06/10 16:56:27;;;;;;;3.20;2.00;;;;;;;28.88;25.37;99519.41;10605762;27;20047;-62
2023/06/10 17:01:29;;;;;;;3.20;1.92;;;;;;;28.96;25.57;99523.69;10578300;27;20104;-62
2023/06/10 17:06:31;;;;;;;3.83;2.10;;;;;;;28.90;25.60;99521.88;10578291;27;20480;-63
2023/06/10 17:11:33;;;;;;;2.55;1.70;;;;;;;28.87;25.89;99538.44;10565825;27;20050;-63
2023/06/10 17:16:35;;;;;;;3.42;2.30;;;;;;;28.81;25.58;99537.44;10564449;27;20050;-63
2023/06/10 17:21:37;;;;;;;2.72;1.92;;;;;;;28.85;25.71;99535.16;10555748;27;20043;-63
2023/06/10 17:26:39;;;;;;;3.88;2.10;;;;;;;28.68;25.71;99537.53;10558986;27;20078;-63
2023/06/10 17:31:41;;;;;;;3.42;2.00;;;;;;;28.41;26.42;99546.81;10566261;27;20043;-63
2023/06/10 17:36:43;;;;;;;3.00;1.90;;;;;;;28.33;26.55;99541.69;10557497;27;20151;-63
2023/06/10 17:41:45;;;;;;;4.07;1.90;;;;;;;28.21;27.06;99535.31;10556954;27;20127;-63
2023/06/10 17:46:47;;;;;;;3.38;2.00;;;;;;;28.33;27.06;99541.69;10557824;27;20040;-63
2023/06/10 17:51:51;;;;;;;3.03;1.90;;;;;;;28.24;27.00;99553.69;10570040;27;20082;-63
2023/06/10 17:56:54;;;;;;;2.90;1.92;;;;;;;28.07;27.16;99563.28;10564185;27;20051;-63
2023/06/10 18:01:56;;;;;;;3.17;1.83;;;;;;;28.08;27.55;99567.63;10557272;27;20142;-63
2023/06/10 18:06:58;;;;;;;2.80;1.75;;;;;;;27.98;27.87;99564.56;10548828;27;20043;-63
2023/06/10 18:12:00;;;;;;;3.00;1.90;;;;;;;27.83;28.25;99574.75;10548996;27;20044;-63
2023/06/10 18:17:02;;;;;;;3.50;2.10;;;;;;;27.74;28.29;99579.53;10557556;27;20074;-63
2023/06/10 18:22:05;;;;;;;2.70;1.95;;;;;;;27.54;28.72;99578.72;10561852;27;20040;-62
2023/06/10 18:27:08;;;;;;;2.97;2.00;;;;;;;27.49;29.19;99584.69;10560484;27;20042;-62
2023/06/10 18:32:10;;;;;;;3.90;2.08;;;;;;;27.32;29.48;99582.66;10546584;27;20051;-63
2023/06/10 18:37:12;;;;;;;3.53;2.03;;;;;;;27.33;29.52;99587.81;10550465;27;20062;-62
2023/06/10 18:42:14;;;;;;;3.92;2.22;;;;;;;27.14;30.03;99602.06;10563465;27;20048;-62
2023/06/10 18:47:16;;;;;;;3.80;2.15;;;;;;;26.95;30.54;99597.50;10557868;27;20128;-63
2023/06/10 18:52:18;;;;;;;3.42;2.25;;;;;;;26.77;30.83;99608.00;10563866;27;20043;-63
2023/06/10 18:57:20;;;;;;;3.67;2.50;;;;;;;26.65;31.19;99606.91;10556302;27;20043;-62
2023/06/10 19:02:22;;;;;;;4.22;2.50;;;;;;;26.44;31.96;99634.69;10574579;27;20047;-63
2023/06/10 19:07:24;;;;;;;3.97;2.40;;;;;;;25.96;32.51;99638.34;10564669;27;20145;-63
2023/06/10 19:12:26;;;;;;;4.03;2.28;;;;;;;25.70;32.60;99647.03;10559574;27;20047;-65
2023/06/10 19:17:28;;;;;;;3.83;2.40;;;;;;;25.35;32.56;99653.31;10550205;27;20043;-65
2023/06/10 19:22:30;;;;;;;3.38;2.15;;;;;;;25.17;32.53;99660.97;10571838;27;20045;-65
2023/06/10 19:27:33;;;;;;;3.95;2.00;;;;;;;25.11;32.68;99664.41;10544742;27;20411;-64
2023/06/10 19:32:35;;;;;;;3.53;2.30;;;;;;;24.91;32.74;99664.22;10556410;27;20039;-65
2023/06/10 19:37:37;;;;;;;3.85;2.40;;;;;;;24.73;33.09;99687.03;10544251;27;20051;-64
2023/06/10 19:42:39;;;;;;;3.78;2.10;;;;;;;24.62;33.34;99688.31;10568675;27;20133;-64
2023/06/10 19:47:40;;;;;;;3.53;1.95;;;;;;;24.55;34.01;99689.25;10579323;27;20059;-65
2023/06/10 19:52:42;;;;;;;3.05;1.98;;;;;;;24.47;33.87;99690.19;10570446;27;20062;-64
2023/06/10 19:57:44;;;;;;;3.78;2.35;;;;;;;24.39;34.13;99692.13;10566171;27;20577;-65
2023/06/10 20:02:46;;;;;;;3.67;2.20;;;;;;;24.27;34.23;99703.28;10555582;28;20522;-65
2023/06/10 20:07:48;;;;;;;4.50;2.40;;;;;;;24.19;34.84;99714.06;10576777;28;20050;-64
2023/06/10 20:12:50;;;;;;;3.72;2.30;;;;;;;24.07;34.68;99717.38;10551790;28;20039;-65
2023/06/10 20:17:52;;;;;;;3.58;2.30;;;;;;;23.91;35.17;99709.50;10560030;27;20064;-65
2023/06/10 20:22:54;;;;;;;3.38;2.13;;;;;;;23.75;35.56;99717.66;10556148;28;20557;-65
2023/06/10 20:27:56;;;;;;;4.03;2.20;;;;;;;23.63;35.89;99722.63;10556130;28;20135;-64
2023/06/10 20:32:59;;;;;;;3.58;2.20;;;;;;;23.48;36.30;99724.41;10536149;27;20182;-65
2023/06/10 20:38:01;;;;;;;4.07;2.38;;;;;;;23.40;36.36;99727.97;10562088;27;20055;-65
2023/06/10 20:43:03;;;;;;;3.72;2.50;;;;;;;23.34;36.73;99738.50;10555445;27;20039;-64
2023/06/10 20:48:05;;;;;;;3.70;2.35;;;;;;;23.17;37.01;99743.09;10570838;27;20059;-64
2023/06/10 20:53:07;;;;;;;3.42;2.28;;;;;;;22.67;37.78;99750.69;10559391;27;20144;-65
2023/06/10 20:58:09;;;;;;;3.13;2.20;;;;;;;22.59;38.17;99748.91;10554822;27;20047;-65
2023/06/10 21:03:11;;;;;;;3.58;2.30;;;;;;;22.60;38.42;99750.53;10562850;27;20039;-65
2023/06/10 21:08:14;;;;;;;4.03;2.42;;;;;;;22.56;38.71;99756.38;10567636;27;20050;-65
2023/06/10 21:13:16;;;;;;;4.43;2.50;;;;;;;22.04;39.20;99761.34;10569239;27;20507;-64
2023/06/10 21:18:18;;;;;;;4.53;2.47;;;;;;;22.15;39.25;99770.84;10566031;27;20487;-65
2023/06/10 21:23:19;;;;;;;4.00;2.42;;;;;;;21.85;39.65;99774.97;10557787;27;20051;-65
2023/06/10 21:28:21;;;;;;;3.55;2.30;;;;;;;21.67;39.81;99777.81;10554042;27;20062;-65
2023/06/10 21:33:23;;;;;;;3.97;2.40;;;;;;;21.66;40.42;99772.66;10558183;27;20043;-65
2023/06/10 21:38:26;;;;;;;3.58;2.17;;;;;;;21.58;40.48;99772.63;10555094;27;20047;-65
2023/06/10 21:43:27;;;;;;;3.92;2.70;;;;;;;21.63;40.45;99775.66;10555644;27;20454;-65
2023/06/10 21:48:30;;;;;;;4.97;2.90;;;;;;;21.60;40.80;99775.97;10563773;27;20067;-65
2023/06/10 21:53:31;;;;;;;4.35;2.58;;;;;;;21.65;40.76;99782.47;10571143;27;20129;-64
2023/06/10 21:58:33;;;;;;;4.28;2.85;;;;;;;21.66;41.21;99783.31;10558146;27;20054;-64
2023/06/10 22:03:35;;;;;;;4.90;2.72;;;;;;;21.67;41.46;99787.63;10556690;27;20380;-64
2023/06/10 22:08:37;;;;;;;4.80;2.50;;;;;;;21.67;41.59;99787.63;10562239;27;20047;-65
2023/06/10 22:13:39;;;;;;;4.63;2.88;;;;;;;21.75;41.52;99795.63;10567961;27;20035;-64
2023/06/10 22:18:41;;;;;;;4.05;2.65;;;;;;;21.51;41.82;99790.28;10567302;27;20482;-64
2023/06/10 22:23:42;;;;;;;5.20;2.88;;;;;;;21.34;42.25;99801.88;10564919;27;20440;-64
2023/06/10 22:28:45;;;;;;;4.40;2.85;;;;;;;21.47;41.91;99800.44;10583330;27;20071;-65
2023/06/10 22:33:47;;;;;;;4.57;2.70;;;;;;;21.57;41.87;99800.25;10563585;27;20575;-64
2023/06/10 22:38:48;;;;;;;4.60;2.80;;;;;;;21.43;42.24;99795.59;10569078;27;20039;-64
2023/06/10 22:43:51;;;;;;;4.72;2.60;;;;;;;21.60;42.01;99794.59;10567521;27;20055;-64
2023/06/10 22:48:53;;;;;;;4.50;2.92;;;;;;;21.63;42.44;99792.47;10558690;27;20059;-65
2023/06/10 22:53:55;;;;;;;4.78;2.60;;;;;;;21.60;42.53;99795.44;10574011;27;20043;-65
2023/06/10 22:58:57;;;;;;;5.10;2.80;;;;;;;21.58;42.61;99799.25;10560317;27;20412;-65
2023/06/10 23:03:58;;;;;;;4.28;2.60;;;;;;;21.64;42.73;99802.09;10566865;27;20044;-65
2023/06/10 23:09:00;;;;;;;4.45;3.00;;;;;;;21.57;42.88;99806.44;10562346;27;20346;-65
2023/06/10 23:14:02;;;;;;;4.63;2.78;;;;;;;21.45;43.04;99810.41;10558939;27;20040;-65
2023/06/10 23:19:04;;;;;;;4.28;2.78;;;;;;;21.44;43.07;99810.53;10571555;27;20096;-65
2023/06/10 23:24:06;;;;;;;4.15;2.65;;;;;;;21.23;43.21;99826.13;10565995;27;20045;-64
2023/06/10 23:29:08;;;;;;;4.75;3.13;;;;;;;20.84;43.85;99829.31;10556397;27;20563;-64
2023/06/10 23:34:09;;;;;;;4.82;3.13;;;;;;;20.91;43.98;99827.66;10552823;28;20047;-64
2023/06/10 23:39:15;;;;;;;4.65;3.10;;;;;;;21.03;44.13;99829.03;10581302;27;20032;-64
2023/06/10 23:44:17;;;;;;;5.50;2.90;;;;;;;21.09;44.34;99835.53;10564009;28;20051;-64
2023/06/10 23:49:19;;;;;;;4.53;3.03;;;;;;;21.12;44.12;99831.72;10558999;27;20108;-64
2023/06/10 23:54:21;;;;;;;5.00;3.17;;;;;;;21.11;44.47;99827.41;10577995;28;20482;-64
2023/06/10 23:59:24;;;;;;;5.20;3.20;;;;;;;20.98;44.63;99833.16;10576532;27;20548;-64
